sensor_id;sensor_type;location;lat;lon;timestamp;pressure;altitude;pressure_sealevel;temperature;humidity
61880;BME280;47817;52.798;27.544;2023-05-06T00:02:05;1032.8;;;6.3;59.6
61880;BME280;47817;52.798;27.544;2023-05-06T00:06:27;1032.8;;;6.3;59.5
61880;BME280;47817;52.798;27.544;2023-05-06T00:11:41;1032.7;;;6.3;59.1
61880;BME280;47817;52.798;27.544;2023-05-06T00:17:05;1032.8;;;6.3;57.7
61880;BME280;47817;52.798;27.544;2023-05-06T00:22:05;1032.8;;;6.3;56.8
61880;BME280;47817;52.798;27.544;2023-05-06T00:26:15;1032.7;;;6.3;56.4
61880;BME280;47817;52.798;27.544;2023-05-06T00:31:21;1032.8;;;6.3;56.1
61880;BME280;47817;52.798;27.544;2023-05-06T00:37:05;1032.8;;;6.2;55.8
61880;BME280;47817;52.798;27.544;2023-05-06T00:41:47;1032.9;;;6.2;55.4
61880;BME280;47817;52.798;27.544;2023-05-06T00:46:27;1032.9;;;6.1;55
61880;BME280;47817;52.798;27.544;2023-05-06T00:51:49;1032.9;;;6.1;54.7
61880;BME280;47817;52.798;27.544;2023-05-06T00:56:57;1033;;;6;54.5
61880;BME280;47817;52.798;27.544;2023-05-06T01:01:28;1033;;;5.9;54.4
61880;BME280;47817;52.798;27.544;2023-05-06T01:06:31;1033;;;5.8;54.4
61880;BME280;47817;52.798;27.544;2023-05-06T01:12:06;1033;;;5.7;54.3
61880;BME280;47817;52.798;27.544;2023-05-06T01:16:16;1033.1;;;5.7;54.1
61880;BME280;47817;52.798;27.544;2023-05-06T01:22:05;1033.1;;;5.7;53.9
61880;BME280;47817;52.798;27.544;2023-05-06T01:26:47;1033.1;;;5.7;53.6
61880;BME280;47817;52.798;27.544;2023-05-06T01:31:30;1033.1;;;5.7;53.2
61880;BME280;47817;52.798;27.544;2023-05-06T01:36:36;1033.1;;;5.6;53.2
61880;BME280;47817;52.798;27.544;2023-05-06T01:41:25;1033.1;;;5.6;53
61880;BME280;47817;52.798;27.544;2023-05-06T01:46:16;1033.1;;;5.5;52.9
61880;BME280;47817;52.798;27.544;2023-05-06T01:51:57;1033.1;;;5.4;52.8
61880;BME280;47817;52.798;27.544;2023-05-06T01:57:01;1033.2;;;5.3;52.7
61880;BME280;47817;52.798;27.544;2023-05-06T02:01:41;1033.2;;;5.2;52.7
61880;BME280;47817;52.798;27.544;2023-05-06T02:07:05;1033.2;;;5.2;52.6
61880;BME280;47817;52.798;27.544;2023-05-06T02:12:05;1033.2;;;5.1;52.6
61880;BME280;47817;52.798;27.544;2023-05-06T02:16:49;1033.3;;;5;52.6
61880;BME280;47817;52.798;27.544;2023-05-06T02:21:27;1033.3;;;5;52.5
61880;BME280;47817;52.798;27.544;2023-05-06T02:26:41;1033.3;;;4.9;52.4
61880;BME280;47817;52.798;27.544;2023-05-06T02:31:41;1033.3;;;4.8;52.4
61880;BME280;47817;52.798;27.544;2023-05-06T02:36:49;1033.3;;;4.8;52.4
61880;BME280;47817;52.798;27.544;2023-05-06T02:41:15;1033.4;;;4.7;52.4
61880;BME280;47817;52.798;27.544;2023-05-06T02:47:05;1033.4;;;4.7;52.4
61880;BME280;47817;52.798;27.544;2023-05-06T02:52:05;1033.5;;;4.7;52.4
61880;BME280;47817;52.798;27.544;2023-05-06T02:56:27;1033.5;;;4.7;52.4
61880;BME280;47817;52.798;27.544;2023-05-06T03:01:41;1033.5;;;4.7;52.5
61880;BME280;47817;52.798;27.544;2023-05-06T03:06:49;1033.6;;;4.7;52.5
61880;BME280;47817;52.798;27.544;2023-05-06T03:11:15;1033.6;;;4.8;52.4
61880;BME280;47817;52.798;27.544;2023-05-06T03:16:41;1033.6;;;4.9;52.2
61880;BME280;47817;52.798;27.544;2023-05-06T03:21:49;1033.7;;;5;52
61880;BME280;47817;52.798;27.544;2023-05-06T03:26:15;1033.8;;;5.1;51.8
61880;BME280;47817;52.798;27.544;2023-05-06T03:32:07;1033.8;;;5.2;51.6
61880;BME280;47817;52.798;27.544;2023-05-06T03:36:27;1033.9;;;5.2;51.4
61880;BME280;47817;52.798;27.544;2023-05-06T03:42:05;1033.9;;;5.2;51.2
61880;BME280;47817;52.798;27.544;2023-05-06T03:46:43;1034;;;5.3;51
61880;BME280;47817;52.798;27.544;2023-05-06T03:52:07;1034;;;5.4;50.9
61880;BME280;47817;52.798;27.544;2023-05-06T03:57:05;1034;;;5.5;50.8
61880;BME280;47817;52.798;27.544;2023-05-06T04:01:57;1034.1;;;5.7;50.6
61880;BME280;47817;52.798;27.544;2023-05-06T04:06:15;1034.1;;;5.8;50.4
61880;BME280;47817;52.798;27.544;2023-05-06T04:11:49;1034.2;;;5.9;50.1
61880;BME280;47817;52.798;27.544;2023-05-06T04:16:39;1034.3;;;6;50
61880;BME280;47817;52.798;27.544;2023-05-06T04:21:29;1034.3;;;6.1;49.7
61880;BME280;47817;52.798;27.544;2023-05-06T04:27:05;1034.3;;;6.2;49.6
61880;BME280;47817;52.798;27.544;2023-05-06T04:31:33;1034.3;;;6.3;49.5
61880;BME280;47817;52.798;27.544;2023-05-06T04:36:27;1034.4;;;6.4;49.4
61880;BME280;47817;52.798;27.544;2023-05-06T04:42:05;1034.4;;;6.5;49.1
61880;BME280;47817;52.798;27.544;2023-05-06T04:46:31;1034.4;;;6.7;48.9
61880;BME280;47817;52.798;27.544;2023-05-06T04:51:27;1034.4;;;6.9;48.7
61880;BME280;47817;52.798;27.544;2023-05-06T04:56:57;1034.4;;;7;48.6
61880;BME280;47817;52.798;27.544;2023-05-06T05:02:05;1034.4;;;7.2;48.4
61880;BME280;47817;52.798;27.544;2023-05-06T05:06:15;1034.4;;;7.4;48.2
61880;BME280;47817;52.798;27.544;2023-05-06T05:11:41;1034.4;;;7.5;48.1
61880;BME280;47817;52.798;27.544;2023-05-06T05:17:05;1034.5;;;7.7;47.9
61880;BME280;47817;52.798;27.544;2023-05-06T05:21:49;1034.5;;;7.9;47.7
61880;BME280;47817;52.798;27.544;2023-05-06T05:26:41;1034.5;;;8;47.5
61880;BME280;47817;52.798;27.544;2023-05-06T05:31:15;1034.5;;;8.2;47.4
61880;BME280;47817;52.798;27.544;2023-05-06T05:37:05;1034.5;;;8.3;47.4
61880;BME280;47817;52.798;27.544;2023-05-06T05:41:29;1034.5;;;8.4;47.2
61880;BME280;47817;52.798;27.544;2023-05-06T05:46:15;1034.5;;;8.5;47.1
61880;BME280;47817;52.798;27.544;2023-05-06T05:51:41;1034.5;;;8.7;46.5
61880;BME280;47817;52.798;27.544;2023-05-06T05:56:55;1034.5;;;8.8;46.4
61880;BME280;47817;52.798;27.544;2023-05-06T06:01:15;1034.5;;;9;46.2
61880;BME280;47817;52.798;27.544;2023-05-06T06:06:39;1034.5;;;9.2;45.5
61880;BME280;47817;52.798;27.544;2023-05-06T06:11:47;1034.6;;;9.3;45.5
61880;BME280;47817;52.798;27.544;2023-05-06T06:16:27;1034.6;;;9.4;45.3
61880;BME280;47817;52.798;27.544;2023-05-06T06:21:41;1034.6;;;9.6;45
61880;BME280;47817;52.798;27.544;2023-05-06T06:26:49;1034.7;;;9.8;44.4
61880;BME280;47817;52.798;27.544;2023-05-06T06:31:29;1034.7;;;10;44
61880;BME280;47817;52.798;27.544;2023-05-06T06:37:05;1034.7;;;10.2;43.8
61880;BME280;47817;52.798;27.544;2023-05-06T06:41:33;1034.8;;;10.4;43.6
61880;BME280;47817;52.798;27.544;2023-05-06T06:47:05;1034.8;;;10.5;43.5
61880;BME280;47817;52.798;27.544;2023-05-06T06:51:31;1034.8;;;10.7;43
61880;BME280;47817;52.798;27.544;2023-05-06T06:56:52;1034.8;;;10.8;42.4
61880;BME280;47817;52.798;27.544;2023-05-06T07:01:29;1034.8;;;10.8;42.3
61880;BME280;47817;52.798;27.544;2023-05-06T07:06:43;1034.8;;;10.8;41.7
61880;BME280;47817;52.798;27.544;2023-05-06T07:11:15;1034.8;;;10.7;40.5
61880;BME280;47817;52.798;27.544;2023-05-06T07:16:49;1034.8;;;10.9;40
61880;BME280;47817;52.798;27.544;2023-05-06T07:21:29;1034.8;;;11.2;39.4
61880;BME280;47817;52.798;27.544;2023-05-06T07:26:27;1034.7;;;11.6;39.3
61880;BME280;47817;52.798;27.544;2023-05-06T07:32:05;1034.7;;;11.8;39.5
61880;BME280;47817;52.798;27.544;2023-05-06T07:36:15;1034.7;;;11.8;39.3
61880;BME280;47817;52.798;27.544;2023-05-06T07:41:15;1034.7;;;12;38.5
61880;BME280;47817;52.798;27.544;2023-05-06T07:47:03;1034.7;;;12.2;37.2
61880;BME280;47817;52.798;27.544;2023-05-06T07:51:27;1034.7;;;12.4;34.7
61880;BME280;47817;52.798;27.544;2023-05-06T07:56:16;1034.7;;;12.7;34.2
61880;BME280;47817;52.798;27.544;2023-05-06T08:01:55;1034.7;;;12.9;33.8
61880;BME280;47817;52.798;27.544;2023-05-06T08:07:01;1034.7;;;13;33.7
61880;BME280;47817;52.798;27.544;2023-05-06T08:11:33;1034.7;;;13.1;33.6
61880;BME280;47817;52.798;27.544;2023-05-06T08:16:37;1034.7;;;13.3;33
61880;BME280;47817;52.798;27.544;2023-05-06T08:22:01;1034.7;;;13.2;31.5
61880;BME280;47817;52.798;27.544;2023-05-06T08:27:01;1034.6;;;13.1;30.8
61880;BME280;47817;52.798;27.544;2023-05-06T08:31:39;1034.7;;;12.9;30.5
61880;BME280;47817;52.798;27.544;2023-05-06T08:36:23;1034.7;;;12.9;29.5
61880;BME280;47817;52.798;27.544;2023-05-06T08:42:05;1034.7;;;13.1;29.1
61880;BME280;47817;52.798;27.544;2023-05-06T08:47:05;1034.8;;;13.6;29.5
61880;BME280;47817;52.798;27.544;2023-05-06T08:51:15;1034.7;;;14;29.4
61880;BME280;47817;52.798;27.544;2023-05-06T08:56:42;1034.7;;;14.3;29.4
61880;BME280;47817;52.798;27.544;2023-05-06T09:01:55;1034.7;;;14.2;28.5
61880;BME280;47817;52.798;27.544;2023-05-06T09:06:27;1034.7;;;14.1;28
61880;BME280;47817;52.798;27.544;2023-05-06T09:11:41;1034.8;;;14.3;27.7
61880;BME280;47817;52.798;27.544;2023-05-06T09:17:01;1034.8;;;14.7;26.7
61880;BME280;47817;52.798;27.544;2023-05-06T09:21:28;1034.7;;;15;27.1
61880;BME280;47817;52.798;27.544;2023-05-06T09:27:03;1034.7;;;15.1;26.9
61880;BME280;47817;52.798;27.544;2023-05-06T09:31:17;1034.7;;;15.3;26.6
61880;BME280;47817;52.798;27.544;2023-05-06T09:36:27;1034.6;;;15.6;26.9
61880;BME280;47817;52.798;27.544;2023-05-06T09:41:47;1034.5;;;15.5;26.5
61880;BME280;47817;52.798;27.544;2023-05-06T09:46:15;1034.5;;;15.6;26.2
61880;BME280;47817;52.798;27.544;2023-05-06T09:51:15;1034.4;;;15.7;26
61880;BME280;47817;52.798;27.544;2023-05-06T09:56:55;1034.3;;;15.9;25.4
61880;BME280;47817;52.798;27.544;2023-05-06T10:01:57;1034.2;;;15.9;25.7
61880;BME280;47817;52.798;27.544;2023-05-06T10:06:41;1034.2;;;16.1;26
61880;BME280;47817;52.798;27.544;2023-05-06T10:12:03;1034.1;;;15.6;24.4
61880;BME280;47817;52.798;27.544;2023-05-06T10:16:49;1034.1;;;15.2;24.9
61880;BME280;47817;52.798;27.544;2023-05-06T10:21:50;1034.1;;;15.1;24.6
61880;BME280;47817;52.798;27.544;2023-05-06T10:26:27;1034;;;15.2;25.1
61880;BME280;47817;52.798;27.544;2023-05-06T10:31:15;1034;;;15.4;24.6
61880;BME280;47817;52.798;27.544;2023-05-06T10:36:49;1033.9;;;15.6;24.1
61880;BME280;47817;52.798;27.544;2023-05-06T10:41:35;1033.9;;;15.7;24.6
61880;BME280;47817;52.798;27.544;2023-05-06T10:46:27;1033.8;;;16.1;24.2
61880;BME280;47817;52.798;27.544;2023-05-06T10:52:09;1033.8;;;15.9;24.3
61880;BME280;47817;52.798;27.544;2023-05-06T10:56:15;1033.7;;;16.2;24.4
61880;BME280;47817;52.798;27.544;2023-05-06T11:01:15;1033.7;;;16.9;24.3
61880;BME280;47817;52.798;27.544;2023-05-06T11:07:05;1033.6;;;17.5;23.8
61880;BME280;47817;52.798;27.544;2023-05-06T11:12:04;1033.5;;;17.1;23.4
61880;BME280;47817;52.798;27.544;2023-05-06T11:16:58;1033.6;;;17;23.8
61880;BME280;47817;52.798;27.544;2023-05-06T11:21:39;1033.6;;;17.2;23.8
61880;BME280;47817;52.798;27.544;2023-05-06T11:27:03;1033.5;;;17.5;23.7
61880;BME280;47817;52.798;27.544;2023-05-06T11:32:03;1033.5;;;17.8;23.7
61880;BME280;47817;52.798;27.544;2023-05-06T11:36:27;1033.5;;;17.9;23.8
61880;BME280;47817;52.798;27.544;2023-05-06T11:41:37;1033.5;;;17.9;24
61880;BME280;47817;52.798;27.544;2023-05-06T11:47:03;1033.6;;;18.2;23.8
61880;BME280;47817;52.798;27.544;2023-05-06T11:51:41;1033.5;;;18.4;23.8
61880;BME280;47817;52.798;27.544;2023-05-06T11:56:27;1033.5;;;18.6;23.3
61880;BME280;47817;52.798;27.544;2023-05-06T12:01:15;1033.4;;;18.8;23.1
61880;BME280;47817;52.798;27.544;2023-05-06T12:06:55;1033.4;;;19.2;22.9
61880;BME280;47817;52.798;27.544;2023-05-06T12:11:27;1033.3;;;19.3;22.9
61880;BME280;47817;52.798;27.544;2023-05-06T12:16:41;1033.3;;;19.3;22.6
61880;BME280;47817;52.798;27.544;2023-05-06T12:22:19;1033.2;;;19.4;22.5
61880;BME280;47817;52.798;27.544;2023-05-06T12:26:40;1033.1;;;19.6;22.4
61880;BME280;47817;52.798;27.544;2023-05-06T12:32:06;1033;;;19.2;21.9
61880;BME280;47817;52.798;27.544;2023-05-06T12:36:49;1033;;;19.4;22.2
61880;BME280;47817;52.798;27.544;2023-05-06T12:41:15;1033;;;19.8;22.1
61880;BME280;47817;52.798;27.544;2023-05-06T12:46:49;1033;;;20.1;22
61880;BME280;47817;52.798;27.544;2023-05-06T12:51:15;1033;;;21.9;21
61880;BME280;47817;52.798;27.544;2023-05-06T12:56:25;1032.9;;;23.2;19.3
61880;BME280;47817;52.798;27.544;2023-05-06T13:01:55;1032.9;;;24;18.6
61880;BME280;47817;52.798;27.544;2023-05-06T13:07:03;1032.8;;;26.6;17.5
61880;BME280;47817;52.798;27.544;2023-05-06T13:11:41;1032.7;;;29;16.7
61880;BME280;47817;52.798;27.544;2023-05-06T13:17:03;1032.6;;;30.3;16.4
61880;BME280;47817;52.798;27.544;2023-05-06T13:22:03;1032.5;;;31.3;15.8
61880;BME280;47817;52.798;27.544;2023-05-06T13:26:49;1032.5;;;31.8;14.6
61880;BME280;47817;52.798;27.544;2023-05-06T13:31:39;1032.6;;;31.9;14.5
61880;BME280;47817;52.798;27.544;2023-05-06T13:36:55;1032.5;;;33.5;13.8
61880;BME280;47817;52.798;27.544;2023-05-06T13:41:53;1032.5;;;33.9;13.3
61880;BME280;47817;52.798;27.544;2023-05-06T13:46:47;1032.4;;;34.1;13
61880;BME280;47817;52.798;27.544;2023-05-06T13:51:41;1032.4;;;34.8;12.5
61880;BME280;47817;52.798;27.544;2023-05-06T13:57:03;1032.3;;;35.8;11.9
61880;BME280;47817;52.798;27.544;2023-05-06T14:02:03;1032.3;;;36.2;11.9
61880;BME280;47817;52.798;27.544;2023-05-06T14:06:15;1032.2;;;36.5;11.7
61880;BME280;47817;52.798;27.544;2023-05-06T14:11:41;1032.2;;;36.9;11.1
61880;BME280;47817;52.798;27.544;2023-05-06T14:16:47;1032.1;;;36.7;10.8
61880;BME280;47817;52.798;27.544;2023-05-06T14:21:21;1032.1;;;36.6;10.6
61880;BME280;47817;52.798;27.544;2023-05-06T14:26:39;1032;;;36.6;10.5
61880;BME280;47817;52.798;27.544;2023-05-06T14:32:03;1032;;;36.4;10.6
61880;BME280;47817;52.798;27.544;2023-05-06T14:37:03;1031.9;;;36.3;10.4
61880;BME280;47817;52.798;27.544;2023-05-06T14:41:39;1032;;;36.2;10.3
61880;BME280;47817;52.798;27.544;2023-05-06T14:46:15;1032;;;35.9;10.4
61880;BME280;47817;52.798;27.544;2023-05-06T14:51:37;1032;;;35.2;10.6
61880;BME280;47817;52.798;27.544;2023-05-06T14:56:47;1032;;;34.4;10.8
61880;BME280;47817;52.798;27.544;2023-05-06T15:01:55;1032;;;34;10.8
61880;BME280;47817;52.798;27.544;2023-05-06T15:06:41;1032;;;33.5;10.8
61880;BME280;47817;52.798;27.544;2023-05-06T15:11:41;1032;;;32.5;11.3
61880;BME280;47817;52.798;27.544;2023-05-06T15:16:15;1032;;;31.3;11.7
61880;BME280;47817;52.798;27.544;2023-05-06T15:21:41;1032.1;;;29.8;12
61880;BME280;47817;52.798;27.544;2023-05-06T15:27:03;1032.1;;;28.4;12.4
61880;BME280;47817;52.798;27.544;2023-05-06T15:31:15;1032.1;;;27.2;12.9
61880;BME280;47817;52.798;27.544;2023-05-06T15:36:50;1032.2;;;26.5;13.3
61880;BME280;47817;52.798;27.544;2023-05-06T15:41:49;1032.2;;;25.7;13.7
61880;BME280;47817;52.798;27.544;2023-05-06T15:46:15;1032.1;;;24.9;14.2
61880;BME280;47817;52.798;27.544;2023-05-06T15:51:47;1032.1;;;24.2;14.6
61880;BME280;47817;52.798;27.544;2023-05-06T15:56:33;1032.1;;;23.4;14.9
61880;BME280;47817;52.798;27.544;2023-05-06T16:01:27;1032.1;;;22.7;15.3
61880;BME280;47817;52.798;27.544;2023-05-06T16:07:03;1032.1;;;22.3;15.5
61880;BME280;47817;52.798;27.544;2023-05-06T16:12:05;1032.1;;;21.9;15.9
61880;BME280;47817;52.798;27.544;2023-05-06T16:16:15;1032.2;;;21.4;16.3
61880;BME280;47817;52.798;27.544;2023-05-06T16:21:55;1032.2;;;20.9;16.9
61880;BME280;47817;52.798;27.544;2023-05-06T16:27:03;1032.1;;;20.3;17.3
61880;BME280;47817;52.798;27.544;2023-05-06T16:31:49;1032.1;;;19.7;17.8
61880;BME280;47817;52.798;27.544;2023-05-06T16:36:15;1032.1;;;19.2;18.3
61880;BME280;47817;52.798;27.544;2023-05-06T16:41:15;1032.1;;;18.7;18.8
61880;BME280;47817;52.798;27.544;2023-05-06T16:46:43;1032.1;;;18;19.3
61880;BME280;47817;52.798;27.544;2023-05-06T16:51:47;1032.1;;;17.5;19.9
61880;BME280;47817;52.798;27.544;2023-05-06T16:56:25;1032.1;;;17;20.3
61880;BME280;47817;52.798;27.544;2023-05-06T17:02:03;1032.2;;;16.6;20.8
61880;BME280;47817;52.798;27.544;2023-05-06T17:07:03;1032.1;;;16.2;21.2
61880;BME280;47817;52.798;27.544;2023-05-06T17:11:15;1032.2;;;15.7;21.8
61880;BME280;47817;52.798;27.544;2023-05-06T17:16:41;1032.2;;;15.3;22.3
61880;BME280;47817;52.798;27.544;2023-05-06T17:21:47;1032.2;;;15;22.8
61880;BME280;47817;52.798;27.544;2023-05-06T17:26:15;1032.3;;;14.7;23.3
61880;BME280;47817;52.798;27.544;2023-05-06T17:31:39;1032.3;;;14.5;23.8
61880;BME280;47817;52.798;27.544;2023-05-06T17:36:49;1032.3;;;14.3;24.3
61880;BME280;47817;52.798;27.544;2023-05-06T17:41:27;1032.4;;;14;24.8
61880;BME280;47817;52.798;27.544;2023-05-06T17:47:03;1032.4;;;13.8;25.4
61880;BME280;47817;52.798;27.544;2023-05-06T17:51:15;1032.4;;;13.6;25.9
61880;BME280;47817;52.798;27.544;2023-05-06T17:56:35;1032.5;;;13.4;26.9
61880;BME280;47817;52.798;27.544;2023-05-06T18:01:47;1032.5;;;13.3;27.5
61880;BME280;47817;52.798;27.544;2023-05-06T18:07:05;1032.6;;;13.2;27.4
61880;BME280;47817;52.798;27.544;2023-05-06T18:11:42;1032.6;;;13.1;27.2
61880;BME280;47817;52.798;27.544;2023-05-06T18:16:55;1032.7;;;13;27.6
61880;BME280;47817;52.798;27.544;2023-05-06T18:21:15;1032.7;;;12.8;28.1
61880;BME280;47817;52.798;27.544;2023-05-06T18:26:51;1032.7;;;12.7;28.3
61880;BME280;47817;52.798;27.544;2023-05-06T18:32:01;1032.7;;;12.6;28.9
61880;BME280;47817;52.798;27.544;2023-05-06T18:36:25;1032.8;;;12.4;29.2
61880;BME280;47817;52.798;27.544;2023-05-06T18:42:03;1032.8;;;12.4;29.3
61880;BME280;47817;52.798;27.544;2023-05-06T18:46:33;1032.7;;;12.3;29.4
61880;BME280;47817;52.798;27.544;2023-05-06T18:51:27;1032.8;;;12.2;29.5
61880;BME280;47817;52.798;27.544;2023-05-06T18:57:03;1032.8;;;12.1;29.8
61880;BME280;47817;52.798;27.544;2023-05-06T19:01:33;1032.8;;;12;30
61880;BME280;47817;52.798;27.544;2023-05-06T19:06:15;1032.8;;;11.9;30.2
61880;BME280;47817;52.798;27.544;2023-05-06T19:11:55;1032.8;;;11.8;30.5
61880;BME280;47817;52.798;27.544;2023-05-06T19:17:03;1032.8;;;11.6;31.3
61880;BME280;47817;52.798;27.544;2023-05-06T19:21:21;1032.8;;;11.5;31.5
61880;BME280;47817;52.798;27.544;2023-05-06T19:26:27;1032.7;;;11.4;31.5
61880;BME280;47817;52.798;27.544;2023-05-06T19:31:49;1032.7;;;11.4;31.5
61880;BME280;47817;52.798;27.544;2023-05-06T19:37:03;1032.7;;;11.3;31.6
61880;BME280;47817;52.798;27.544;2023-05-06T19:41:25;1032.7;;;11.2;31.6
61880;BME280;47817;52.798;27.544;2023-05-06T19:46:33;1032.8;;;11.1;31.7
61880;BME280;47817;52.798;27.544;2023-05-06T19:52:03;1032.8;;;11;31.7
61880;BME280;47817;52.798;27.544;2023-05-06T19:56:17;1032.8;;;10.9;32
61880;BME280;47817;52.798;27.544;2023-05-06T20:01:15;1032.7;;;10.8;32.2
61880;BME280;47817;52.798;27.544;2023-05-06T20:06:15;1032.8;;;10.8;32.5
61880;BME280;47817;52.798;27.544;2023-05-06T20:11:55;1032.8;;;10.7;32.6
61880;BME280;47817;52.798;27.544;2023-05-06T20:16:15;1032.9;;;10.7;32.3
61880;BME280;47817;52.798;27.544;2023-05-06T20:21:55;1032.9;;;10.7;32.5
61880;BME280;47817;52.798;27.544;2023-05-06T20:27:03;1033;;;10.6;32.7
61880;BME280;47817;52.798;27.544;2023-05-06T20:31:27;1033;;;10.6;33
61880;BME280;47817;52.798;27.544;2023-05-06T20:37:03;1033.1;;;10.5;33.2
61880;BME280;47817;52.798;27.544;2023-05-06T20:41:49;1033.1;;;10.4;33.4
61880;BME280;47817;52.798;27.544;2023-05-06T20:46:15;1033.1;;;10.4;33.8
61880;BME280;47817;52.798;27.544;2023-05-06T20:51:47;1033.2;;;10.4;33.7
61880;BME280;47817;52.798;27.544;2023-05-06T20:56:15;1033.2;;;10.3;33.7
61880;BME280;47817;52.798;27.544;2023-05-06T21:01:27;1033.2;;;10.3;33.6
61880;BME280;47817;52.798;27.544;2023-05-06T21:06:51;1033.2;;;10.2;33.7
61880;BME280;47817;52.798;27.544;2023-05-06T21:12:03;1033.3;;;10.1;33.8
61880;BME280;47817;52.798;27.544;2023-05-06T21:16:41;1033.3;;;10;33.9
61880;BME280;47817;52.798;27.544;2023-05-06T21:21:51;1033.4;;;9.9;34.3
61880;BME280;47817;52.798;27.544;2023-05-06T21:27:03;1033.4;;;9.8;34.3
61880;BME280;47817;52.798;27.544;2023-05-06T21:31:49;1033.5;;;9.8;34.4
61880;BME280;47817;52.798;27.544;2023-05-06T21:36:39;1033.5;;;9.7;34.4
61880;BME280;47817;52.798;27.544;2023-05-06T21:41:15;1033.5;;;9.7;34.4
61880;BME280;47817;52.798;27.544;2023-05-06T21:46:57;1033.6;;;9.7;34.4
61880;BME280;47817;52.798;27.544;2023-05-06T21:51:43;1033.6;;;9.6;34.5
61880;BME280;47817;52.798;27.544;2023-05-06T21:56:27;1033.6;;;9.6;34.8
61880;BME280;47817;52.798;27.544;2023-05-06T22:02:05;1033.6;;;9.5;34.9
61880;BME280;47817;52.798;27.544;2023-05-06T22:07:05;1033.6;;;9.5;34.9
61880;BME280;47817;52.798;27.544;2023-05-06T22:11:15;1033.6;;;9.4;35
61880;BME280;47817;52.798;27.544;2023-05-06T22:16:41;1033.7;;;9.4;35.2
61880;BME280;47817;52.798;27.544;2023-05-06T22:21:49;1033.7;;;9.4;35
61880;BME280;47817;52.798;27.544;2023-05-06T22:26:15;1033.7;;;9.3;35.1
61880;BME280;47817;52.798;27.544;2023-05-06T22:31:29;1033.7;;;9.2;35.2
61880;BME280;47817;52.798;27.544;2023-05-06T22:36:49;1033.8;;;9.2;35.4
61880;BME280;47817;52.798;27.544;2023-05-06T22:41:15;1033.8;;;9.1;35.7
61880;BME280;47817;52.798;27.544;2023-05-06T22:47:07;1033.8;;;9;35.8
61880;BME280;47817;52.798;27.544;2023-05-06T22:51:35;1033.8;;;9;35.6
61880;BME280;47817;52.798;27.544;2023-05-06T22:57:07;1033.8;;;9;35.7
61880;BME280;47817;52.798;27.544;2023-05-06T23:01:49;1033.9;;;9;35.7
61880;BME280;47817;52.798;27.544;2023-05-06T23:06:15;1033.9;;;9;35.9
61880;BME280;47817;52.798;27.544;2023-05-06T23:11:29;1033.9;;;9;35.9
61880;BME280;47817;52.798;27.544;2023-05-06T23:16:29;1033.9;;;9;36
61880;BME280;47817;52.798;27.544;2023-05-06T23:21:25;1033.9;;;8.9;36.2
61880;BME280;47817;52.798;27.544;2023-05-06T23:26:39;1034;;;8.8;36.3
61880;BME280;47817;52.798;27.544;2023-05-06T23:32:03;1034;;;8.8;36.4
61880;BME280;47817;52.798;27.544;2023-05-06T23:36:39;1034;;;8.7;36.4
61880;BME280;47817;52.798;27.544;2023-05-06T23:42:03;1033.9;;;8.7;36.4
61880;BME280;47817;52.798;27.544;2023-05-06T23:46:49;1033.9;;;8.7;36.5
61880;BME280;47817;52.798;27.544;2023-05-06T23:51:15;1033.9;;;8.6;36.8
61880;BME280;47817;52.798;27.544;2023-05-06T23:56:47;1033.9;;;8.6;37.1
